createdAt,value
2022-10-11T00:01:41.494Z,16.40
2022-10-11T00:04:14.158Z,16.40
2022-10-11T00:06:47.661Z,16.50
2022-10-11T00:09:20.313Z,16.50
2022-10-11T00:11:56.789Z,16.50
2022-10-11T00:14:29.250Z,16.50
2022-10-11T00:17:01.791Z,16.50
2022-10-11T00:19:34.880Z,16.50
2022-10-11T00:22:07.408Z,16.50
2022-10-11T00:24:39.972Z,16.60
2022-10-11T00:27:12.567Z,16.60
2022-10-11T00:29:45.361Z,16.60
2022-10-11T00:32:18.506Z,16.60
2022-10-11T00:34:51.149Z,16.70
2022-10-11T00:37:23.777Z,16.70
2022-10-11T00:39:56.629Z,16.70
2022-10-11T00:42:29.213Z,16.70
2022-10-11T00:45:32.313Z,16.70
2022-10-11T00:48:15.182Z,16.60
2022-10-11T00:50:47.973Z,16.60
2022-10-11T00:53:22.033Z,16.50
2022-10-11T00:56:05.470Z,16.50
2022-10-11T00:58:39.368Z,16.50
2022-10-11T01:01:12.229Z,16.50
2022-10-11T01:03:45.253Z,16.40
2022-10-11T01:06:17.773Z,16.40
2022-10-11T01:08:52.295Z,16.30
2022-10-11T01:11:28.263Z,16.30
2022-10-11T01:14:02.428Z,16.30
2022-10-11T01:16:44.614Z,16.20
2022-10-11T01:19:52.221Z,16.20
2022-10-11T01:22:56.038Z,16.10
2022-10-11T01:25:44.665Z,16.10
2022-10-11T01:28:18.073Z,16.10
2022-10-11T01:30:52.314Z,16.10
2022-10-11T01:33:38.758Z,16.00
2022-10-11T01:36:28.151Z,16.00
2022-10-11T01:39:20.801Z,15.90
2022-10-11T01:41:57.806Z,15.90
2022-10-11T01:44:32.373Z,15.90
2022-10-11T01:47:05.179Z,15.80
2022-10-11T01:49:37.642Z,15.80
2022-10-11T01:52:12.039Z,15.80
2022-10-11T01:55:10.723Z,15.80
2022-10-11T01:58:14.767Z,15.70
2022-10-11T02:00:58.379Z,15.70
2022-10-11T02:03:53.765Z,15.70
2022-10-11T02:06:35.988Z,15.60
2022-10-11T02:09:18.886Z,15.60
2022-10-11T02:11:56.664Z,15.60
2022-10-11T02:14:33.472Z,15.60
2022-10-11T02:17:13.562Z,15.60
2022-10-11T02:19:50.782Z,15.60
2022-10-11T02:22:30.602Z,15.60
2022-10-11T02:25:09.535Z,15.50
2022-10-11T02:27:45.860Z,15.50
2022-10-11T02:30:18.917Z,15.50
2022-10-11T02:32:54.204Z,15.50
2022-10-11T02:35:30.112Z,15.40
2022-10-11T02:38:09.169Z,15.30
2022-10-11T02:40:47.149Z,15.30
2022-10-11T02:43:38.811Z,15.20
2022-10-11T02:46:12.422Z,15.20
2022-10-11T02:48:44.897Z,15.10
2022-10-11T02:51:18.778Z,15.20
2022-10-11T02:53:51.387Z,15.20
2022-10-11T02:56:23.879Z,15.10
2022-10-11T02:58:56.554Z,15.10
2022-10-11T03:01:29.163Z,15.10
2022-10-11T03:04:01.906Z,15.10
2022-10-11T03:06:34.369Z,15.10
2022-10-11T03:09:07.117Z,15.10
2022-10-11T03:11:39.634Z,15.00
2022-10-11T03:14:12.344Z,15.00
2022-10-11T03:16:44.842Z,15.00
2022-10-11T03:19:19.471Z,15.00
2022-10-11T03:21:52.476Z,15.00
2022-10-11T03:24:25.122Z,15.00
2022-10-11T03:26:58.000Z,15.00
2022-10-11T03:29:30.729Z,15.10
2022-10-11T03:32:03.603Z,15.00
2022-10-11T03:34:36.262Z,15.10
2022-10-11T03:37:08.688Z,15.00
2022-10-11T03:39:41.302Z,15.00
2022-10-11T03:42:14.606Z,15.10
2022-10-11T03:44:49.752Z,15.10
2022-10-11T03:47:22.415Z,15.10
2022-10-11T03:49:55.056Z,15.00
2022-10-11T03:52:28.006Z,15.00
2022-10-11T03:55:00.673Z,15.00
2022-10-11T03:57:33.509Z,15.00
2022-10-11T04:00:08.090Z,14.90
2022-10-11T04:02:40.677Z,14.90
2022-10-11T04:05:13.231Z,14.90
2022-10-11T04:07:45.711Z,14.80
2022-10-11T04:10:18.808Z,14.80
2022-10-11T04:12:51.397Z,14.80
2022-10-11T04:15:23.993Z,14.80
2022-10-11T04:17:56.512Z,14.70
2022-10-11T04:20:29.116Z,14.70
2022-10-11T04:23:01.779Z,14.60
2022-10-11T04:25:34.515Z,14.50
2022-10-11T04:28:09.240Z,14.50
2022-10-11T04:30:42.126Z,14.40
2022-10-11T04:33:14.997Z,14.40
2022-10-11T04:35:47.773Z,14.40
2022-10-11T04:38:20.336Z,14.40
2022-10-11T04:40:53.105Z,14.40
2022-10-11T04:43:25.818Z,14.40
2022-10-11T04:45:58.718Z,14.40
2022-10-11T04:48:31.761Z,14.40
2022-10-11T04:51:04.756Z,14.40
2022-10-11T04:53:37.509Z,14.40
2022-10-11T04:56:12.454Z,14.30
2022-10-11T04:58:48.478Z,14.30
2022-10-11T05:01:21.974Z,14.30
2022-10-11T05:03:54.395Z,14.30
2022-10-11T05:06:27.225Z,14.30
2022-10-11T05:09:00.990Z,14.20
2022-10-11T05:11:33.632Z,14.20
2022-10-11T05:14:06.254Z,14.20
2022-10-11T05:16:38.762Z,14.20
2022-10-11T05:19:11.350Z,14.20
2022-10-11T05:21:44.039Z,14.10
2022-10-11T05:24:16.551Z,14.10
2022-10-11T05:26:50.076Z,14.10
2022-10-11T05:29:22.672Z,14.00
2022-10-11T05:31:55.370Z,14.10
2022-10-11T05:34:27.897Z,14.10
2022-10-11T05:37:00.526Z,14.10
2022-10-11T05:39:33.090Z,14.10
2022-10-11T05:42:09.794Z,14.20
2022-10-11T05:44:42.754Z,14.20
2022-10-11T05:47:15.358Z,14.20
2022-10-11T05:49:47.913Z,14.20
2022-10-11T05:52:22.012Z,14.30
2022-10-11T05:54:54.482Z,14.20
2022-10-11T05:57:27.058Z,14.30
2022-10-11T05:59:59.601Z,14.30
2022-10-11T06:02:33.677Z,14.30
2022-10-11T06:05:06.603Z,14.40
2022-10-11T06:07:39.447Z,14.40
2022-10-11T06:10:12.222Z,14.50
2022-10-11T06:12:44.766Z,14.50
2022-10-11T06:15:18.369Z,14.50
2022-10-11T06:17:51.509Z,14.50
2022-10-11T06:20:24.246Z,14.60
2022-10-11T06:22:59.051Z,14.60
2022-10-11T06:25:31.568Z,14.70
2022-10-11T06:28:04.253Z,14.70
2022-10-11T06:30:38.584Z,14.80
2022-10-11T06:33:11.072Z,14.80
2022-10-11T06:35:43.459Z,14.90
2022-10-11T06:38:16.126Z,14.90
2022-10-11T06:40:48.655Z,15.00
2022-10-11T06:43:22.853Z,15.10
2022-10-11T06:46:00.232Z,15.20
2022-10-11T06:48:33.168Z,15.20
2022-10-11T06:51:06.096Z,15.30
2022-10-11T06:53:38.790Z,15.30
2022-10-11T06:56:13.292Z,15.40
2022-10-11T06:58:46.523Z,15.40
2022-10-11T07:01:21.771Z,15.50
2022-10-11T07:03:55.611Z,15.60
2022-10-11T07:06:30.055Z,15.70
2022-10-11T07:09:03.099Z,15.70
2022-10-11T07:11:36.117Z,15.80
2022-10-11T07:14:10.089Z,15.80
2022-10-11T07:16:42.708Z,15.90
2022-10-11T07:19:15.646Z,15.90
2022-10-11T07:21:48.268Z,15.90
2022-10-11T07:24:20.962Z,16.00
2022-10-11T07:26:53.802Z,16.00
2022-10-11T07:29:26.449Z,16.10
2022-10-11T07:31:58.909Z,16.10
2022-10-11T07:34:31.678Z,16.20
2022-10-11T07:37:04.350Z,16.20
2022-10-11T07:39:37.302Z,16.30
2022-10-11T07:42:10.159Z,16.40
2022-10-11T07:44:42.646Z,16.40
2022-10-11T07:47:15.097Z,16.50
2022-10-11T07:49:47.598Z,16.60
2022-10-11T07:52:20.168Z,16.70
2022-10-11T07:54:52.717Z,16.80
2022-10-11T07:57:25.170Z,16.80
2022-10-11T07:59:57.699Z,17.00
2022-10-11T08:02:30.217Z,17.10
2022-10-11T08:05:02.922Z,17.10
2022-10-11T08:07:36.493Z,17.30
2022-10-11T08:10:10.056Z,17.40
2022-10-11T08:12:42.664Z,17.40
2022-10-11T08:15:15.494Z,17.50
2022-10-11T08:17:48.331Z,17.50
2022-10-11T08:20:21.126Z,17.60
2022-10-11T08:22:53.734Z,17.60
2022-10-11T08:25:26.448Z,17.70
2022-10-11T08:27:59.018Z,17.70
2022-10-11T08:30:31.902Z,17.70
2022-10-11T08:33:08.443Z,17.70
2022-10-11T08:35:41.469Z,17.80
2022-10-11T08:38:14.252Z,17.80
2022-10-11T08:40:53.929Z,17.90
2022-10-11T08:43:30.293Z,17.90
2022-10-11T08:46:05.296Z,18.00
2022-10-11T08:48:38.568Z,18.10
2022-10-11T08:51:21.184Z,18.20
2022-10-11T08:54:07.178Z,18.20
2022-10-11T08:56:43.770Z,18.30
2022-10-11T08:59:29.727Z,18.30
2022-10-11T09:02:13.277Z,18.40
2022-10-11T09:04:50.582Z,18.50
2022-10-11T09:07:48.628Z,18.60
2022-10-11T09:10:41.550Z,18.70
2022-10-11T09:13:41.982Z,18.80
2022-10-11T09:16:24.082Z,18.90
2022-10-11T09:18:57.247Z,18.90
2022-10-11T09:21:38.700Z,18.90
2022-10-11T09:24:28.955Z,19.00
2022-10-11T09:27:07.360Z,19.10
2022-10-11T09:29:55.030Z,19.20
2022-10-11T09:32:34.451Z,19.20
2022-10-11T09:35:17.728Z,19.30
2022-10-11T09:38:02.119Z,19.40
2022-10-11T09:40:53.733Z,19.40
2022-10-11T09:43:26.396Z,19.50
2022-10-11T09:45:59.285Z,19.50
2022-10-11T09:48:41.854Z,19.50
2022-10-11T09:51:20.350Z,19.50
2022-10-11T09:53:55.824Z,19.50
2022-10-11T09:56:31.279Z,19.60
2022-10-11T09:59:19.322Z,19.60
2022-10-11T10:02:08.873Z,19.70
2022-10-11T10:04:58.699Z,19.70
2022-10-11T10:07:33.853Z,19.80
2022-10-11T10:10:35.910Z,19.80
2022-10-11T10:13:22.394Z,19.90
2022-10-11T10:15:59.671Z,19.90
2022-10-11T10:18:37.587Z,20.00
2022-10-11T10:21:15.120Z,20.00
2022-10-11T10:23:55.694Z,20.00
2022-10-11T10:26:28.828Z,20.10
2022-10-11T10:29:05.339Z,20.20
2022-10-11T10:35:04.390Z,20.30
2022-10-11T10:37:43.545Z,20.40
2022-10-11T10:40:28.486Z,20.40
2022-10-11T10:43:01.198Z,20.50
2022-10-11T10:45:52.271Z,20.50
2022-10-11T10:49:11.656Z,20.50
2022-10-11T10:51:53.896Z,20.50
2022-10-11T10:54:37.380Z,20.50
2022-10-11T10:57:16.275Z,20.60
2022-10-11T10:59:53.151Z,20.60
2022-10-11T11:02:58.171Z,20.60
2022-10-11T11:05:37.899Z,20.60
2022-10-11T11:08:27.914Z,20.60
2022-10-11T11:11:13.571Z,20.70
2022-10-11T11:14:00.722Z,20.80
2022-10-11T11:16:45.902Z,20.80
2022-10-11T11:19:20.045Z,20.80
2022-10-11T11:21:57.106Z,20.90
2022-10-11T11:24:49.084Z,21.00
2022-10-11T11:27:53.247Z,21.00
2022-10-11T11:30:48.965Z,21.00
2022-10-11T11:33:38.217Z,21.00
2022-10-11T11:36:16.799Z,21.00
2022-10-11T11:38:54.461Z,21.10
2022-10-11T11:41:39.693Z,21.20
2022-10-11T11:44:29.349Z,21.20
2022-10-11T11:47:18.194Z,21.30
2022-10-11T11:50:00.477Z,21.30
2022-10-11T11:52:41.550Z,21.30
2022-10-11T11:55:16.182Z,21.40
2022-10-11T11:58:08.323Z,21.40
2022-10-11T12:01:04.509Z,21.50
2022-10-11T12:03:42.895Z,21.50
2022-10-11T12:06:17.617Z,21.50
2022-10-11T12:09:02.338Z,21.50
2022-10-11T12:11:39.148Z,21.60
2022-10-11T12:14:28.463Z,21.70
2022-10-11T12:17:09.052Z,21.70
2022-10-11T12:20:00.175Z,21.80
2022-10-11T12:22:34.638Z,21.80
2022-10-11T12:25:14.941Z,21.90
2022-10-11T12:27:55.296Z,21.80
2022-10-11T12:30:45.312Z,21.90
2022-10-11T12:33:21.614Z,21.90
2022-10-11T12:35:55.022Z,21.90
2022-10-11T12:38:29.050Z,22.00
2022-10-11T12:41:19.693Z,22.00
2022-10-11T12:43:53.335Z,22.10
2022-10-11T12:46:30.091Z,22.20
2022-10-11T12:49:25.866Z,22.20
2022-10-11T12:52:15.654Z,22.30
2022-10-11T12:55:03.589Z,22.30
2022-10-11T12:57:41.427Z,22.20
2022-10-11T13:00:21.818Z,22.20
2022-10-11T13:02:55.627Z,22.20
2022-10-11T13:05:44.955Z,22.20
2022-10-11T13:08:32.435Z,22.30
2022-10-11T13:11:09.681Z,22.30
2022-10-11T13:13:50.294Z,22.20
2022-10-11T13:16:26.623Z,22.20
2022-10-11T13:19:01.292Z,22.10
2022-10-11T13:21:37.473Z,22.10
2022-10-11T13:24:15.164Z,22.10
2022-10-11T13:26:52.402Z,22.10
2022-10-11T13:29:41.451Z,22.10
2022-10-11T13:32:17.304Z,22.10
2022-10-11T13:37:44.621Z,22.10
2022-10-11T13:40:20.264Z,22.10
2022-10-11T13:42:54.643Z,22.10
2022-10-11T13:45:31.079Z,22.20
2022-10-11T13:48:05.382Z,22.20
2022-10-11T13:50:39.588Z,22.20
2022-10-11T13:53:12.897Z,22.10
2022-10-11T13:55:54.493Z,22.10
2022-10-11T13:58:40.713Z,22.10
2022-10-11T14:01:25.170Z,22.10
2022-10-11T14:04:04.735Z,22.10
2022-10-11T14:06:46.670Z,22.10
2022-10-11T14:09:26.224Z,22.00
2022-10-11T14:12:29.533Z,22.00
2022-10-11T14:15:04.265Z,22.00
2022-10-11T14:17:42.052Z,22.00
2022-10-11T14:20:22.434Z,22.00
2022-10-11T14:22:55.176Z,22.00
2022-10-11T14:25:27.981Z,22.00
2022-10-11T14:28:01.403Z,22.00
2022-10-11T14:30:34.120Z,22.00
2022-10-11T14:33:07.268Z,22.00
2022-10-11T14:35:43.598Z,22.00
2022-10-11T14:38:16.274Z,21.90
2022-10-11T14:40:50.982Z,21.90
2022-10-11T14:43:23.962Z,21.90
2022-10-11T14:45:57.369Z,21.90
2022-10-11T14:48:54.497Z,21.90
2022-10-11T14:51:28.132Z,21.80
2022-10-11T14:54:00.934Z,21.80
2022-10-11T14:56:33.487Z,21.70
2022-10-11T14:59:06.495Z,21.70
2022-10-11T15:01:39.424Z,21.70
2022-10-11T15:04:13.042Z,21.70
2022-10-11T15:06:45.826Z,21.60
2022-10-11T15:09:21.239Z,21.60
2022-10-11T15:11:54.928Z,21.50
2022-10-11T15:14:28.043Z,21.50
2022-10-11T15:17:00.665Z,21.50
2022-10-11T15:19:33.397Z,21.40
2022-10-11T15:22:06.293Z,21.40
2022-10-11T15:24:38.965Z,21.40
2022-10-11T15:27:11.529Z,21.30
2022-10-11T15:29:44.426Z,21.30
2022-10-11T15:32:17.315Z,21.20
2022-10-11T15:34:49.917Z,21.20
2022-10-11T15:37:22.919Z,21.20
2022-10-11T15:39:55.817Z,21.10
2022-10-11T15:42:28.794Z,21.10
2022-10-11T15:45:01.510Z,21.00
2022-10-11T15:47:34.542Z,20.90
2022-10-11T15:50:24.884Z,20.90
2022-10-11T15:52:58.221Z,20.90
2022-10-11T15:55:32.728Z,20.80
2022-10-11T15:58:05.615Z,20.80
2022-10-11T16:00:38.417Z,20.70
2022-10-11T16:03:13.531Z,20.70
2022-10-11T16:05:46.266Z,20.60
2022-10-11T16:08:19.575Z,20.60
2022-10-11T16:10:53.028Z,20.60
2022-10-11T16:13:25.905Z,20.50
2022-10-11T16:16:00.789Z,20.50
2022-10-11T16:18:35.653Z,20.40
2022-10-11T16:21:10.749Z,20.40
2022-10-11T16:23:43.763Z,20.30
2022-10-11T16:26:16.823Z,20.20
2022-10-11T16:28:49.700Z,20.20
2022-10-11T16:31:22.777Z,20.10
2022-10-11T16:33:57.442Z,20.10
2022-10-11T16:36:32.400Z,20.00
2022-10-11T16:39:09.301Z,20.00
2022-10-11T16:41:44.034Z,19.90
2022-10-11T16:44:22.075Z,19.80
2022-10-11T16:46:56.046Z,19.70
2022-10-11T16:49:30.111Z,19.70
2022-10-11T16:52:04.508Z,19.60
2022-10-11T16:54:38.676Z,19.50
2022-10-11T16:57:12.528Z,19.40
2022-10-11T16:59:45.202Z,19.30
2022-10-11T17:02:20.798Z,19.30
2022-10-11T17:04:54.313Z,19.20
2022-10-11T17:07:27.413Z,19.20
2022-10-11T17:10:01.385Z,19.10
2022-10-11T17:12:37.486Z,19.00
2022-10-11T17:15:13.053Z,19.00
2022-10-11T17:17:45.909Z,18.90
2022-10-11T17:20:18.662Z,18.80
2022-10-11T17:22:51.906Z,18.80
2022-10-11T17:25:24.797Z,18.80
2022-10-11T17:27:57.772Z,18.70
2022-10-11T17:30:30.670Z,18.60
2022-10-11T17:33:03.988Z,18.50
2022-10-11T17:35:36.916Z,18.50
2022-10-11T17:38:11.064Z,18.50
2022-10-11T17:40:43.886Z,18.40
2022-10-11T17:43:17.065Z,18.40
2022-10-11T17:46:06.898Z,18.30
2022-10-11T17:48:40.624Z,18.20
2022-10-11T17:51:17.519Z,18.10
2022-10-11T17:53:51.325Z,18.10
2022-10-11T17:56:29.534Z,18.10
2022-10-11T17:59:03.623Z,18.00
2022-10-11T18:01:36.763Z,18.00
2022-10-11T18:04:16.921Z,18.00
2022-10-11T18:06:49.788Z,17.90
2022-10-11T18:09:25.155Z,17.90
2022-10-11T18:11:57.723Z,17.90
2022-10-11T18:14:30.522Z,17.80
2022-10-11T18:17:03.822Z,17.80
2022-10-11T18:19:36.901Z,17.80
2022-10-11T18:22:09.617Z,17.70
2022-10-11T18:24:42.254Z,17.70
2022-10-11T18:27:14.898Z,17.60
2022-10-11T18:29:47.618Z,17.60
2022-10-11T18:32:21.177Z,17.60
2022-10-11T18:34:56.415Z,17.60
2022-10-11T18:37:29.571Z,17.60
2022-10-11T18:40:03.421Z,17.60
2022-10-11T18:42:36.407Z,17.50
2022-10-11T18:45:10.780Z,17.50
2022-10-11T18:47:43.728Z,17.50
2022-10-11T18:50:17.588Z,17.40
2022-10-11T18:52:50.526Z,17.40
2022-10-11T18:55:23.849Z,17.40
2022-10-11T18:57:56.811Z,17.30
2022-10-11T19:00:44.980Z,17.30
2022-10-11T19:03:18.035Z,17.20
2022-10-11T19:05:51.307Z,17.20
2022-10-11T19:08:24.045Z,17.20
2022-10-11T19:10:57.248Z,17.20
2022-10-11T19:13:30.084Z,17.10
2022-10-11T19:16:07.484Z,17.10
2022-10-11T19:18:44.223Z,17.10
2022-10-11T19:21:18.405Z,17.00
2022-10-11T19:23:51.808Z,17.00
2022-10-11T19:26:29.453Z,17.00
2022-10-11T19:29:05.667Z,17.00
2022-10-11T19:31:44.859Z,17.00
2022-10-11T19:34:18.489Z,16.90
2022-10-11T19:36:53.963Z,16.90
2022-10-11T19:39:28.311Z,16.90
2022-10-11T19:42:01.555Z,16.90
2022-10-11T19:44:38.759Z,16.90
2022-10-11T19:47:12.792Z,16.90
2022-10-11T19:49:45.729Z,16.80
2022-10-11T19:52:18.442Z,16.80
2022-10-11T19:54:50.989Z,16.80
2022-10-11T19:57:23.660Z,16.80
2022-10-11T19:59:56.363Z,16.70
2022-10-11T20:02:29.207Z,16.70
2022-10-11T20:05:02.120Z,16.60
2022-10-11T20:07:34.864Z,16.60
2022-10-11T20:10:07.983Z,16.60
2022-10-11T20:12:45.705Z,16.60
2022-10-11T20:15:18.736Z,16.60
2022-10-11T20:17:51.952Z,16.60
2022-10-11T20:20:24.594Z,16.50
2022-10-11T20:22:57.483Z,16.50
2022-10-11T20:25:30.073Z,16.50
2022-10-11T20:28:02.932Z,16.40
2022-10-11T20:30:35.626Z,16.40
2022-10-11T20:33:08.545Z,16.40
2022-10-11T20:35:41.491Z,16.40
2022-10-11T20:38:14.371Z,16.40
2022-10-11T20:40:47.102Z,16.40
2022-10-11T20:43:19.943Z,16.40
2022-10-11T20:46:02.661Z,16.40
2022-10-11T20:48:36.399Z,16.30
2022-10-11T20:51:10.832Z,16.30
2022-10-11T20:53:43.632Z,16.30
2022-10-11T20:56:18.671Z,16.30
2022-10-11T20:58:52.921Z,16.30
2022-10-11T21:01:29.726Z,16.20
2022-10-11T21:04:03.327Z,16.20
2022-10-11T21:06:35.941Z,16.20
2022-10-11T21:09:10.283Z,16.20
2022-10-11T21:11:46.141Z,16.20
2022-10-11T21:14:18.841Z,16.20
2022-10-11T21:16:51.397Z,16.20
2022-10-11T21:19:24.312Z,16.30
2022-10-11T21:21:56.954Z,16.20
2022-10-11T21:24:29.632Z,16.20
2022-10-11T21:27:02.296Z,16.20
2022-10-11T21:29:34.925Z,16.20
2022-10-11T21:32:09.801Z,16.20
2022-10-11T21:34:46.546Z,16.20
2022-10-11T21:37:19.212Z,16.20
2022-10-11T21:39:51.895Z,16.10
2022-10-11T21:42:29.289Z,16.10
2022-10-11T21:45:02.371Z,16.10
2022-10-11T21:47:38.829Z,16.10
2022-10-11T21:50:12.249Z,16.00
2022-10-11T21:52:44.920Z,16.00
2022-10-11T21:55:17.587Z,15.90
2022-10-11T21:57:50.193Z,15.90
2022-10-11T22:00:22.982Z,15.90
2022-10-11T22:02:55.732Z,15.90
2022-10-11T22:05:28.407Z,15.90
2022-10-11T22:08:00.877Z,15.80
2022-10-11T22:10:35.499Z,15.80
2022-10-11T22:13:07.944Z,15.80
2022-10-11T22:15:40.436Z,15.70
2022-10-11T22:18:13.103Z,15.70
2022-10-11T22:20:45.643Z,15.80
2022-10-11T22:23:19.362Z,15.80
2022-10-11T22:25:52.002Z,15.80
2022-10-11T22:28:24.558Z,15.80
2022-10-11T22:30:57.428Z,15.80
2022-10-11T22:33:30.025Z,15.80
2022-10-11T22:36:05.350Z,15.80
2022-10-11T22:38:39.450Z,15.80
2022-10-11T22:41:12.213Z,15.70
2022-10-11T22:43:44.884Z,15.70
2022-10-11T22:46:17.550Z,15.70
2022-10-11T22:48:50.432Z,15.60
2022-10-11T22:51:22.991Z,15.50
2022-10-11T22:53:55.422Z,15.50
2022-10-11T22:56:28.165Z,15.50
2022-10-11T22:59:00.660Z,15.50
2022-10-11T23:01:33.519Z,15.50
2022-10-11T23:04:06.080Z,15.40
2022-10-11T23:06:38.993Z,15.40
2022-10-11T23:09:11.553Z,15.30
2022-10-11T23:11:44.129Z,15.30
2022-10-11T23:14:16.677Z,15.30
2022-10-11T23:16:52.301Z,15.30
2022-10-11T23:19:24.967Z,15.30
2022-10-11T23:21:57.495Z,15.30
2022-10-11T23:24:30.068Z,15.20
2022-10-11T23:27:02.598Z,15.30
2022-10-11T23:29:35.188Z,15.20
2022-10-11T23:32:08.490Z,15.30
2022-10-11T23:34:41.056Z,15.20
2022-10-11T23:37:13.686Z,15.20
2022-10-11T23:39:46.153Z,15.20
2022-10-11T23:42:18.663Z,15.10
2022-10-11T23:44:53.282Z,15.10
2022-10-11T23:47:25.848Z,15.10
2022-10-11T23:49:58.423Z,15.10
2022-10-11T23:52:31.041Z,15.10
2022-10-11T23:55:04.332Z,15.10
2022-10-11T23:57:37.340Z,15.10
